Time,TemperatureF,DewpointF,PressureIn,WindDirection,WindDirectionDegrees,WindSpeedMPH,WindSpeedGustMPH,Humidity,HourlyPrecipIn,Conditions,Clouds,dailyrainin,SoftwareType,DateUTC
2013-04-09 00:01:00,64.7,53.5,30.05,SW,224,1.0,3.0,67,0.00,CLR,,0.00,WeatherDisplay:10.37,2013-04-09 04:01:00,
2013-04-09 00:10:00,64.6,53.4,30.05,SW,224,0.0,3.0,67,0.00,CLR,,0.00,WeatherDisplay:10.37,2013-04-09 04:10:00,
2013-04-09 00:20:00,64.3,53.5,30.05,SW,224,0.0,2.0,68,0.00,CLR,,0.00,WeatherDisplay:10.37,2013-04-09 04:20:00,
2013-04-09 00:40:00,63.9,53.5,30.06,SW,224,1.0,2.0,69,0.00,CLR,,0.00,WeatherDisplay:10.37,2013-04-09 04:40:00,
2013-04-09 00:50:00,64.0,53.6,30.06,SW,224,0.0,4.0,69,0.00,CLR,,0.00,WeatherDisplay:10.37,2013-04-09 04:50:00,
2013-04-09 01:10:00,63.1,53.2,30.06,SW,224,0.0,4.0,70,0.00,CLR,,0.00,WeatherDisplay:10.37,2013-04-09 05:10:00,
2013-04-09 01:20:00,62.9,53.4,30.06,SW,224,1.0,2.0,71,0.00,CLR,,0.00,WeatherDisplay:10.37,2013-04-09 05:20:00,
2013-04-09 01:40:00,62.0,53.2,30.06,SW,224,0.0,1.0,73,0.00,CLR,,0.00,WeatherDisplay:10.37,2013-04-09 05:40:00,
2013-04-09 01:50:00,61.3,53.3,30.06,SW,224,0.0,1.0,75,0.00,CLR,,0.00,WeatherDisplay:10.37,2013-04-09 05:50:00,
2013-04-09 02:10:00,60.6,53.0,30.06,SW,224,0.0,1.0,76,0.00,CLR,,0.00,WeatherDisplay:10.37,2013-04-09 06:10:00,
2013-04-09 02:20:00,59.9,53.0,30.05,SW,224,0.0,0.0,78,0.00,CLR,,0.00,WeatherDisplay:10.37,2013-04-09 06:20:00,
2013-04-09 02:31:00,59.4,52.6,30.05,SW,224,0.0,1.0,78,0.00,CLR,,0.00,WeatherDisplay:10.37,2013-04-09 06:31:00,
2013-04-09 02:40:00,58.9,52.7,30.05,SW,224,0.0,0.0,80,0.00,CLR,,0.00,WeatherDisplay:10.37,2013-04-09 06:40:00,
2013-04-09 02:50:00,58.3,52.5,30.06,SW,224,0.0,0.0,81,0.00,CLR,,0.00,WeatherDisplay:10.37,2013-04-09 06:50:00,
2013-04-09 03:10:00,58.0,52.5,30.05,SW,224,0.0,1.0,82,0.00,CLR,,0.00,WeatherDisplay:10.37,2013-04-09 07:10:00,
2013-04-09 03:20:00,57.9,52.4,30.05,SW,224,0.0,0.0,82,0.00,CLR,,0.00,WeatherDisplay:10.37,2013-04-09 07:20:00,
2013-04-09 03:40:00,57.1,52.3,30.05,SW,224,0.0,1.0,84,0.00,CLR,,0.00,WeatherDisplay:10.37,2013-04-09 07:40:00,
2013-04-09 03:50:00,56.6,52.1,30.05,SW,224,0.0,0.0,85,0.00,CLR,,0.00,WeatherDisplay:10.37,2013-04-09 07:50:00,
2013-04-09 04:10:00,55.7,51.9,30.06,SW,224,0.0,1.0,87,0.00,CLR,,0.00,WeatherDisplay:10.37,2013-04-09 08:10:00,
2013-04-09 04:20:00,55.3,51.2,30.06,SW,224,0.0,3.0,86,0.00,CLR,,0.00,WeatherDisplay:10.37,2013-04-09 08:20:00,
2013-04-09 04:40:00,55.0,51.8,30.06,SW,224,0.0,1.0,89,0.00,CLR,,0.00,WeatherDisplay:10.37,2013-04-09 08:40:00,
2013-04-09 04:50:00,54.9,51.4,30.06,SW,224,0.0,1.0,88,0.00,CLR,,0.00,WeatherDisplay:10.37,2013-04-09 08:50:00,
2013-04-09 05:10:00,55.1,51.9,30.07,SW,224,0.0,0.0,89,0.00,CLR,,0.00,WeatherDisplay:10.37,2013-04-09 09:10:00,
2013-04-09 05:20:00,55.2,52.0,30.07,SW,224,0.0,0.0,89,0.00,CLR,,0.00,WeatherDisplay:10.37,2013-04-09 09:20:00,
2013-04-09 05:31:00,54.9,51.5,30.08,SW,224,0.0,1.0,88,0.00,CLR,,0.00,WeatherDisplay:10.37,2013-04-09 09:31:00,
2013-04-09 05:40:00,54.6,51.4,30.08,SW,224,0.0,1.0,89,0.00,CLR,,0.00,WeatherDisplay:10.37,2013-04-09 09:40:00,
2013-04-09 05:50:00,54.6,51.5,30.08,SW,224,0.0,0.0,89,0.00,CLR,,0.00,WeatherDisplay:10.37,2013-04-09 09:50:00,
2013-04-09 06:10:00,54.5,51.3,30.09,SW,224,0.0,0.0,89,0.00,CLR,,0.00,WeatherDisplay:10.37,2013-04-09 10:10:00,
2013-04-09 06:20:00,54.2,51.3,30.10,SW,224,0.0,1.0,90,0.00,CLR,,0.00,WeatherDisplay:10.37,2013-04-09 10:20:00,
2013-04-09 06:40:00,53.9,51.4,30.11,SW,224,0.0,0.0,91,0.00,CLR,,0.00,WeatherDisplay:10.37,2013-04-09 10:40:00,
2013-04-09 06:51:00,54.0,51.4,30.11,SW,224,0.0,0.0,91,0.00,CLR,,0.00,WeatherDisplay:10.37,2013-04-09 10:51:00,
2013-04-09 07:10:00,53.4,50.8,30.11,SW,224,0.0,0.0,91,0.00,CLR,,0.00,WeatherDisplay:10.37,2013-04-09 11:10:00,
2013-04-09 07:20:00,53.1,50.8,30.11,SW,224,0.0,0.0,92,0.00,CLR,,0.00,WeatherDisplay:10.37,2013-04-09 11:20:00,
2013-04-09 07:40:00,52.8,50.8,30.12,SW,224,0.0,0.0,93,0.00,CLR,,0.00,WeatherDisplay:10.37,2013-04-09 11:40:00,
2013-04-09 07:50:00,52.8,50.8,30.12,SW,224,0.0,0.0,93,0.00,CLR,,0.00,WeatherDisplay:10.37,2013-04-09 11:50:00,
2013-04-09 08:10:00,53.9,52.2,30.13,SW,224,0.0,0.0,94,0.00,CLR,,0.00,WeatherDisplay:10.37,2013-04-09 12:10:00,
2013-04-09 08:20:00,55.3,53.3,30.13,SW,224,0.0,0.0,93,0.00,CLR,,0.00,WeatherDisplay:10.37,2013-04-09 12:20:00,
2013-04-09 08:40:00,59.4,55.2,30.13,SW,224,0.0,0.0,86,0.00,CLR,,0.00,WeatherDisplay:10.37,2013-04-09 12:40:00,
2013-04-09 08:50:00,61.1,55.6,30.13,SW,224,0.0,0.0,82,0.00,CLR,,0.00,WeatherDisplay:10.37,2013-04-09 12:50:00,
2013-04-09 09:01:00,62.6,56.0,30.13,SW,216,2.0,6.0,79,0.00,CLR,,0.00,WeatherDisplay:10.37,2013-04-09 13:01:00,
2013-04-09 09:10:00,63.8,56.4,30.13,SW,218,0.0,3.0,77,0.00,CLR,,0.00,WeatherDisplay:10.37,2013-04-09 13:10:00,
2013-04-09 09:20:00,64.9,56.8,30.14,SSW,192,3.0,7.0,75,0.00,CLR,,0.00,WeatherDisplay:10.37,2013-04-09 13:20:00,
2013-04-09 09:31:00,66.1,57.6,30.13,South,177,1.0,7.0,74,0.00,CLR,,0.00,WeatherDisplay:10.37,2013-04-09 13:31:00,
2013-04-09 09:40:00,67.0,57.7,30.14,South,187,2.0,9.0,72,0.00,CLR,,0.00,WeatherDisplay:10.37,2013-04-09 13:40:00,
2013-04-09 09:50:00,67.0,57.7,30.14,SSW,202,3.0,8.0,72,0.00,CLR,,0.00,WeatherDisplay:10.37,2013-04-09 13:50:00,
2013-04-09 10:01:00,67.2,57.9,30.15,SSW,212,3.0,6.0,72,0.00,CLR,,0.00,WeatherDisplay:10.37,2013-04-09 14:01:00,
2013-04-09 10:10:00,68.1,58.3,30.15,South,181,6.0,9.0,71,0.00,CLR,,0.00,WeatherDisplay:10.37,2013-04-09 14:10:00,
2013-04-09 10:20:00,68.6,58.4,30.15,SSW,212,3.0,10.0,70,0.00,CLR,,0.00,WeatherDisplay:10.37,2013-04-09 14:20:00,
2013-04-09 10:31:00,69.1,58.5,30.16,SSW,195,3.0,8.0,69,0.00,CLR,,0.00,WeatherDisplay:10.37,2013-04-09 14:31:00,
2013-04-09 10:40:00,69.7,59.5,30.16,SSW,195,1.0,7.0,70,0.00,CLR,,0.00,WeatherDisplay:10.37,2013-04-09 14:40:00,
2013-04-09 10:50:00,70.6,59.5,30.16,South,187,3.0,12.0,68,0.00,CLR,,0.00,WeatherDisplay:10.37,2013-04-09 14:50:00,
2013-04-09 11:01:00,70.8,59.3,30.16,South,173,3.0,9.0,67,0.00,CLR,,0.00,WeatherDisplay:10.37,2013-04-09 15:01:00,
2013-04-09 11:11:00,70.8,59.7,30.17,SSW,206,2.0,8.0,68,0.00,CLR,,0.00,WeatherDisplay:10.37,2013-04-09 15:11:00,
2013-04-09 11:20:00,72.0,59.6,30.17,South,190,5.0,6.0,65,0.00,CLR,,0.00,WeatherDisplay:10.37,2013-04-09 15:20:00,
2013-04-09 11:40:00,71.9,59.5,30.17,SSE,149,5.0,10.0,65,0.00,CLR,,0.00,WeatherDisplay:10.37,2013-04-09 15:40:00,
2013-04-09 11:50:00,72.4,59.5,30.18,South,174,5.0,10.0,64,0.00,CLR,,0.00,WeatherDisplay:10.37,2013-04-09 15:50:00,
2013-04-09 12:10:00,73.2,60.3,30.18,South,172,1.0,6.0,64,0.00,SCT,,0.00,WeatherDisplay:10.37,2013-04-09 16:10:00,
2013-04-09 12:20:00,73.4,59.2,30.18,South,176,5.0,8.0,61,0.00,SCT,,0.00,WeatherDisplay:10.37,2013-04-09 16:20:00,
2013-04-09 12:31:00,73.8,60.0,30.17,SSW,194,5.0,8.0,62,0.00,SCT,,0.00,WeatherDisplay:10.37,2013-04-09 16:31:00,
2013-04-09 12:40:00,74.6,59.8,30.17,South,181,3.0,9.0,60,0.00,OVC,,0.00,WeatherDisplay:10.37,2013-04-09 16:40:00,
2013-04-09 12:51:00,74.5,59.7,30.17,SSW,193,3.0,7.0,60,0.00,OVC,,0.00,WeatherDisplay:10.37,2013-04-09 16:51:00,
2013-04-09 13:10:00,75.0,59.7,30.17,SSE,152,7.0,12.0,59,0.00,OVC,,0.00,WeatherDisplay:10.37,2013-04-09 17:10:00,
2013-04-09 13:20:00,75.1,59.8,30.16,South,175,2.0,12.0,59,0.00,OVC,,0.00,WeatherDisplay:10.37,2013-04-09 17:20:00,
2013-04-09 13:40:00,76.5,59.6,30.15,South,174,6.0,12.0,56,0.00,OVC,,0.00,WeatherDisplay:10.37,2013-04-09 17:40:00,
2013-04-09 13:50:00,77.9,58.8,30.14,WSW,237,6.0,10.0,52,0.00,SCT,,0.00,WeatherDisplay:10.37,2013-04-09 17:50:00,
2013-04-09 14:10:00,78.4,59.3,30.14,SW,221,6.0,10.0,52,0.00,BKN,,0.00,WeatherDisplay:10.37,2013-04-09 18:10:00,
2013-04-09 14:20:00,78.4,59.3,30.13,South,174,3.0,13.0,52,0.00,BKN,,0.00,WeatherDisplay:10.37,2013-04-09 18:20:00,
2013-04-09 14:31:00,78.5,59.9,30.13,South,172,2.0,13.0,53,0.00,BKN,,0.00,WeatherDisplay:10.37,2013-04-09 18:31:00,
2013-04-09 14:40:00,78.5,58.3,30.12,South,184,1.0,16.0,50,0.00,BKN,,0.00,WeatherDisplay:10.37,2013-04-09 18:40:00,
2013-04-09 14:51:00,78.9,58.7,30.12,SSW,201,9.0,13.0,50,0.00,BKN,,0.00,WeatherDisplay:10.37,2013-04-09 18:51:00,
2013-04-09 15:01:00,78.7,58.5,30.11,SW,229,6.0,15.0,50,0.00,BKN,,0.00,WeatherDisplay:10.37,2013-04-09 19:01:00,
2013-04-09 15:10:00,79.2,57.8,30.11,SW,222,7.0,13.0,48,0.00,OVC,,0.00,WeatherDisplay:10.37,2013-04-09 19:10:00,
2013-04-09 15:20:00,79.6,58.7,30.10,SW,217,5.0,12.0,49,0.00,OVC,,0.00,WeatherDisplay:10.37,2013-04-09 19:20:00,
2013-04-09 15:31:00,80.2,59.3,30.10,South,184,6.0,12.0,49,0.00,OVC,,0.00,WeatherDisplay:10.37,2013-04-09 19:31:00,
2013-04-09 15:40:00,79.8,59.5,30.10,SSW,205,5.0,14.0,50,0.00,BKN,,0.00,WeatherDisplay:10.37,2013-04-09 19:40:00,
2013-04-09 15:50:00,79.5,58.7,30.09,SSW,192,6.0,16.0,49,0.00,SCT,,0.00,WeatherDisplay:10.37,2013-04-09 19:50:00,
2013-04-09 16:10:00,79.6,58.8,30.08,SSW,210,5.0,12.0,49,0.00,SCT,,0.00,WeatherDisplay:10.37,2013-04-09 20:10:00,
2013-04-09 16:20:00,80.0,58.5,30.08,SSW,193,5.0,13.0,48,0.00,SCT,,0.00,WeatherDisplay:10.37,2013-04-09 20:20:00,
2013-04-09 16:40:00,80.0,58.6,30.08,SSW,211,7.0,16.0,48,0.00,SCT,,0.00,WeatherDisplay:10.37,2013-04-09 20:40:00,
2013-04-09 16:51:00,79.8,57.8,30.07,SSW,210,6.0,16.0,47,0.00,CLR,,0.00,WeatherDisplay:10.37,2013-04-09 20:51:00,
2013-04-09 17:01:00,79.3,57.3,30.07,SSW,194,3.0,12.0,47,0.00,CLR,,0.00,WeatherDisplay:10.37,2013-04-09 21:01:00,
2013-04-09 17:11:00,79.2,57.3,30.07,SSE,162,8.0,18.0,47,0.00,CLR,,0.00,WeatherDisplay:10.37,2013-04-09 21:11:00,
2013-04-09 17:20:00,80.4,57.1,30.07,SW,217,7.0,15.0,45,0.00,CLR,,0.00,WeatherDisplay:10.37,2013-04-09 21:20:00,
2013-04-09 17:31:00,79.7,57.0,30.06,SW,214,6.0,16.0,46,0.00,CLR,,0.00,WeatherDisplay:10.37,2013-04-09 21:31:00,
2013-04-09 17:40:00,79.5,56.9,30.07,SW,219,5.0,13.0,46,0.00,CLR,,0.00,WeatherDisplay:10.37,2013-04-09 21:40:00,
2013-04-09 17:50:00,79.8,56.6,30.06,SSW,206,7.0,14.0,45,0.00,CLR,,0.00,WeatherDisplay:10.37,2013-04-09 21:50:00,
2013-04-09 18:10:00,80.6,56.0,30.06,SW,219,8.0,16.0,43,0.00,CLR,,0.00,WeatherDisplay:10.37,2013-04-09 22:10:00,
2013-04-09 18:20:00,79.8,55.9,30.06,SW,221,6.0,15.0,44,0.00,CLR,,0.00,WeatherDisplay:10.37,2013-04-09 22:20:00,
2013-04-09 18:31:00,79.6,56.4,30.06,SSW,210,6.0,13.0,45,0.00,CLR,,0.00,WeatherDisplay:10.37,2013-04-09 22:31:00,
2013-04-09 18:40:00,80.2,56.3,30.05,SSW,195,6.0,14.0,44,0.00,CLR,,0.00,WeatherDisplay:10.37,2013-04-09 22:40:00,
2013-04-09 18:50:00,80.2,56.3,30.04,SW,216,3.0,13.0,44,0.00,CLR,,0.00,WeatherDisplay:10.37,2013-04-09 22:50:00,
2013-04-09 19:01:00,79.7,55.9,30.04,SSW,202,7.0,12.0,44,0.00,CLR,,0.00,WeatherDisplay:10.37,2013-04-09 23:01:00,
2013-04-09 19:10:00,79.3,56.1,30.03,South,172,5.0,12.0,45,0.00,CLR,,0.00,WeatherDisplay:10.37,2013-04-09 23:10:00,
2013-04-09 19:20:00,79.1,55.9,30.02,SSE,163,2.0,20.0,45,0.00,CLR,,0.00,WeatherDisplay:10.37,2013-04-09 23:20:00,
2013-04-09 19:31:00,78.9,56.4,30.02,South,188,2.0,12.0,46,0.00,CLR,,0.00,WeatherDisplay:10.37,2013-04-09 23:31:00,
2013-04-09 19:40:00,78.6,56.1,30.02,South,188,2.0,12.0,46,0.00,CLR,,0.00,WeatherDisplay:10.37,2013-04-09 23:40:00,
2013-04-09 19:50:00,78.3,56.4,30.02,SSW,205,2.0,10.0,47,0.00,CLR,,0.00,WeatherDisplay:10.37,2013-04-09 23:50:00,
2013-04-09 20:01:00,77.4,56.7,30.03,SSW,208,3.0,5.0,49,0.00,CLR,,0.00,WeatherDisplay:10.37,2013-04-10 00:01:00,
2013-04-09 20:10:00,76.7,56.7,30.03,SW,227,3.0,6.0,50,0.00,CLR,,0.00,WeatherDisplay:10.37,2013-04-10 00:10:00,
2013-04-09 20:20:00,75.8,56.9,30.04,SW,221,1.0,5.0,52,0.00,CLR,,0.00,WeatherDisplay:10.37,2013-04-10 00:20:00,
2013-04-09 20:40:00,74.5,56.2,30.04,SW,222,2.0,4.0,53,0.00,CLR,,0.00,WeatherDisplay:10.37,2013-04-10 00:40:00,
2013-04-09 20:51:00,74.0,56.3,30.04,SW,222,2.0,4.0,54,0.00,CLR,,0.00,WeatherDisplay:10.37,2013-04-10 00:51:00,
2013-04-09 21:10:00,73.3,56.7,30.05,SW,222,0.0,1.0,56,0.00,CLR,,0.00,WeatherDisplay:10.37,2013-04-10 01:10:00,
2013-04-09 21:20:00,72.3,56.7,30.06,SW,222,0.0,0.0,58,0.00,CLR,,0.00,WeatherDisplay:10.37,2013-04-10 01:20:00,
2013-04-09 21:40:00,69.9,56.3,30.07,SW,222,0.0,0.0,62,0.00,CLR,,0.00,WeatherDisplay:10.37,2013-04-10 01:40:00,
2013-04-09 21:50:00,69.2,56.5,30.07,SW,222,0.0,0.0,64,0.00,CLR,,0.00,WeatherDisplay:10.37,2013-04-10 01:50:00,
2013-04-09 22:10:00,68.4,56.6,30.06,SW,222,0.0,0.0,66,0.00,CLR,,0.00,WeatherDisplay:10.37,2013-04-10 02:10:00,
2013-04-09 22:20:00,67.5,56.2,30.07,SW,222,0.0,0.0,67,0.00,CLR,,0.00,WeatherDisplay:10.37,2013-04-10 02:20:00,
2013-04-09 22:31:00,66.8,56.3,30.07,SW,222,0.0,0.0,69,0.00,CLR,,0.00,WeatherDisplay:10.37,2013-04-10 02:31:00,
2013-04-09 22:40:00,66.4,56.4,30.07,SW,222,0.0,1.0,70,0.00,CLR,,0.00,WeatherDisplay:10.37,2013-04-10 02:40:00,
2013-04-09 22:50:00,65.8,56.1,30.07,SW,222,0.0,0.0,71,0.00,CLR,,0.00,WeatherDisplay:10.37,2013-04-10 02:50:00,
2013-04-09 23:10:00,64.5,56.0,30.07,SW,222,0.0,0.0,74,0.00,CLR,,0.00,WeatherDisplay:10.37,2013-04-10 03:10:00,
2013-04-09 23:20:00,64.3,56.2,30.08,SW,222,0.0,0.0,75,0.00,CLR,,0.00,WeatherDisplay:10.37,2013-04-10 03:20:00,
2013-04-09 23:40:00,63.5,55.8,30.07,SW,222,0.0,1.0,76,0.00,CLR,,0.00,WeatherDisplay:10.37,2013-04-10 03:40:00,
2013-04-09 23:50:00,63.6,55.9,30.07,SW,222,0.0,0.0,76,0.00,CLR,,0.00,WeatherDisplay:10.37,2013-04-10 03:50:00,